Time;durP1;ratioP1;P1;durP2;ratioP2;P2;SDS_P1;SDS_P2;PMS_P1;PMS_P2;Temp;Humidity;BMP_temperature;BMP_pressure;BME280_temperature;BME280_humidity;BME280_pressure;Samples;Min_cycle;Max_cycle;Signal;HPM_P1;HPM_P2
2021/08/08 00:00:48;;;;;;;5.65;3.45;;;;;;;14.44;100.00;100113.03;4971304;28;20034;-78
2021/08/08 00:03:14;;;;;;;6.05;3.22;;;;;;;14.42;100.00;100107.94;4956038;28;20121;-78
2021/08/08 00:05:39;;;;;;;8.77;3.58;;;;;;;14.40;100.00;100123.13;4956310;28;20038;-78
2021/08/08 00:08:05;;;;;;;7.90;3.50;;;;;;;14.43;100.00;100127.19;4937000;28;20073;-78
2021/08/08 00:10:30;;;;;;;7.15;3.78;;;;;;;14.43;100.00;100133.31;4953784;28;20037;-79
2021/08/08 00:12:56;;;;;;;6.07;3.78;;;;;;;14.37;100.00;100145.44;4957171;28;20122;-79
2021/08/08 00:15:23;;;;;;;8.90;4.10;;;;;;;14.38;100.00;100139.13;4939603;28;20142;-79
2021/08/08 00:17:49;;;;;;;7.47;3.50;;;;;;;14.47;100.00;100144.31;4970395;28;20922;-79
2021/08/08 00:20:14;;;;;;;7.55;3.40;;;;;;;14.48;100.00;100141.47;4954091;28;20505;-79
2021/08/08 00:22:41;;;;;;;4.72;3.08;;;;;;;14.51;100.00;100138.47;4976320;28;20070;-79
2021/08/08 00:25:10;;;;;;;5.18;3.40;;;;;;;14.43;100.00;100140.41;4964181;28;20538;-79
2021/08/08 00:27:37;;;;;;;5.63;3.28;;;;;;;14.39;100.00;100138.16;4972777;28;20034;-81
2021/08/08 00:30:07;;;;;;;8.57;3.72;;;;;;;14.34;100.00;100135.25;4969627;28;20579;-81
2021/08/08 00:32:33;;;;;;;8.25;3.30;;;;;;;14.28;100.00;100121.97;4969481;28;20113;-80
2021/08/08 00:35:07;;;;;;;8.48;2.72;;;;;;;14.23;100.00;100122.53;4956739;28;20070;-80
2021/08/08 00:37:33;;;;;;;7.22;3.05;;;;;;;14.20;100.00;100117.63;4966868;28;20038;-81
2021/08/08 00:39:59;;;;;;;7.35;3.05;;;;;;;14.14;100.00;100126.28;4937542;28;20049;-80
2021/08/08 00:42:26;;;;;;;8.50;2.88;;;;;;;14.08;100.00;100127.03;4955106;28;20053;-79
2021/08/08 00:44:51;;;;;;;6.78;2.80;;;;;;;14.00;100.00;100122.66;4986562;28;20023;-77
2021/08/08 00:47:17;;;;;;;6.63;2.60;;;;;;;13.92;100.00;100133.28;4950192;28;20046;-82
2021/08/08 00:49:43;;;;;;;5.00;2.35;;;;;;;13.90;100.00;100145.84;4970517;28;20042;-77
2021/08/08 00:52:10;;;;;;;3.72;2.50;;;;;;;13.87;100.00;100144.41;4973899;28;20042;-82
2021/08/08 00:54:40;;;;;;;4.50;2.60;;;;;;;13.79;100.00;100147.16;4956555;28;20047;-82
2021/08/08 00:57:06;;;;;;;3.88;2.30;;;;;;;13.73;100.00;100148.69;4955542;28;20038;-83
2021/08/08 00:59:32;;;;;;;2.63;2.40;;;;;;;13.65;100.00;100143.50;4984379;28;20044;-82
2021/08/08 01:02:00;;;;;;;4.43;2.70;;;;;;;13.59;100.00;100147.66;4979979;28;20042;-80
2021/08/08 01:04:31;;;;;;;3.00;2.47;;;;;;;13.56;100.00;100152.47;4976928;28;20042;-82
2021/08/08 01:07:09;;;;;;;6.88;2.75;;;;;;;13.49;100.00;100151.59;4936948;28;20113;-81
2021/08/08 01:09:41;;;;;;;9.23;2.60;;;;;;;13.44;100.00;100158.19;4964527;28;20062;-80
2021/08/08 01:12:08;;;;;;;10.13;2.92;;;;;;;13.37;100.00;100152.00;4963543;28;20050;-77
2021/08/08 01:14:40;;;;;;;8.37;2.67;;;;;;;13.32;100.00;100149.09;4948292;28;20039;-79
2021/08/08 01:17:09;;;;;;;7.50;2.45;;;;;;;13.31;100.00;100150.06;4958051;28;20300;-80
2021/08/08 01:19:41;;;;;;;5.38;2.45;;;;;;;13.25;100.00;100158.66;4957230;28;20047;-81
2021/08/08 01:22:08;;;;;;;5.85;2.30;;;;;;;13.22;100.00;100156.38;4957178;28;20767;-80
2021/08/08 01:24:34;;;;;;;4.95;2.47;;;;;;;13.20;100.00;100155.75;4942982;28;20041;-80
2021/08/08 01:27:02;;;;;;;7.40;2.35;;;;;;;13.13;100.00;100158.28;4971063;28;20162;-80
2021/08/08 01:29:30;;;;;;;3.30;2.90;;;;;;;13.07;100.00;100158.97;4962876;28;20899;-78
2021/08/08 01:31:56;;;;;;;8.48;2.58;;;;;;;13.06;100.00;100162.63;4979363;28;20042;-79
2021/08/08 01:34:29;;;;;;;11.05;2.83;;;;;;;13.10;100.00;100158.63;4950574;28;20718;-79
2021/08/08 01:36:58;;;;;;;5.22;2.67;;;;;;;13.07;100.00;100155.53;4973971;28;20026;-79
2021/08/08 01:39:29;;;;;;;10.15;2.97;;;;;;;12.96;100.00;100152.31;4955028;28;20113;-79
2021/08/08 01:41:58;;;;;;;3.33;2.70;;;;;;;12.96;100.00;100162.84;4953355;28;20031;-78
2021/08/08 01:44:32;;;;;;;4.15;2.40;;;;;;;12.98;100.00;100160.88;4975563;28;20047;-78
2021/08/08 01:47:01;;;;;;;3.47;2.80;;;;;;;12.94;100.00;100162.22;4947853;28;20035;-81
2021/08/08 01:49:29;;;;;;;7.78;2.75;;;;;;;12.93;100.00;100160.56;4971674;28;20030;-77
2021/08/08 01:51:57;;;;;;;5.95;2.83;;;;;;;12.89;100.00;100155.84;4969400;28;20551;-78
2021/08/08 01:54:24;;;;;;;8.98;2.70;;;;;;;12.83;100.00;100155.53;4953747;28;20034;-79
2021/08/08 01:56:56;;;;;;;5.90;2.70;;;;;;;12.82;100.00;100160.97;4969777;28;20031;-76
2021/08/08 01:59:24;;;;;;;8.55;2.67;;;;;;;12.79;100.00;100153.41;4968676;28;20073;-78
2021/08/08 02:01:52;;;;;;;5.57;2.70;;;;;;;12.80;100.00;100141.91;4952357;28;20038;-78
2021/08/08 02:04:24;;;;;;;8.57;3.20;;;;;;;12.87;100.00;100163.09;4957137;28;20039;-78
2021/08/08 02:06:58;;;;;;;6.97;3.47;;;;;;;12.92;100.00;100160.75;4969052;28;20031;-79
2021/08/08 02:09:24;;;;;;;4.78;3.40;;;;;;;12.89;100.00;100158.47;4971418;28;20034;-79
2021/08/08 02:11:49;;;;;;;4.80;3.15;;;;;;;12.88;100.00;100168.16;4952498;28;20077;-79
2021/08/08 02:14:17;;;;;;;10.25;4.00;;;;;;;12.94;100.00;100170.13;4939184;28;20045;-79
2021/08/08 02:16:45;;;;;;;6.95;3.65;;;;;;;12.95;100.00;100165.66;4968334;28;20133;-80
2021/08/08 02:19:15;;;;;;;8.18;3.65;;;;;;;12.90;100.00;100168.81;4952971;28;20050;-78
2021/08/08 02:21:48;;;;;;;;;;;;;;;12.89;100.00;100167.19;4969158;28;20045;-78
2021/08/08 02:24:17;;;;;;;4.72;3.72;;;;;;;12.91;100.00;100174.91;4947025;28;20361;-80
2021/08/08 02:26:51;;;;;;;5.13;3.08;;;;;;;12.85;100.00;100176.44;4974746;28;20150;-77
2021/08/08 02:29:17;;;;;;;4.47;3.63;;;;;;;12.87;100.00;100165.72;4961065;28;20121;-79
2021/08/08 02:31:45;;;;;;;6.45;3.65;;;;;;;12.84;100.00;100169.50;4937884;28;20494;-77
2021/08/08 02:34:19;;;;;;;5.25;3.60;;;;;;;12.75;100.00;100163.50;4962822;28;20035;-80
2021/08/08 02:36:46;;;;;;;7.22;3.78;;;;;;;12.74;100.00;100171.56;4952944;28;20039;-77
2021/08/08 02:39:12;;;;;;;6.00;3.60;;;;;;;12.66;100.00;100173.25;4957484;28;20035;-79
2021/08/08 02:41:38;;;;;;;6.15;3.40;;;;;;;12.67;100.00;100171.44;4963402;28;20053;-77
2021/08/08 02:44:04;;;;;;;6.47;3.25;;;;;;;12.63;100.00;100173.59;4935632;28;20035;-77
2021/08/08 02:46:30;;;;;;;6.22;3.10;;;;;;;12.59;100.00;100180.19;4968634;28;20049;-79
2021/08/08 02:48:57;;;;;;;5.70;3.55;;;;;;;12.55;100.00;100176.28;4968808;28;20833;-79
2021/08/08 02:51:25;;;;;;;5.65;3.40;;;;;;;12.56;100.00;100182.34;4945849;28;20078;-80
2021/08/08 02:53:51;;;;;;;7.47;3.30;;;;;;;12.49;100.00;100171.72;4968621;28;20057;-77
2021/08/08 02:56:16;;;;;;;11.98;3.55;;;;;;;12.44;100.00;100182.75;4968760;28;20039;-77
2021/08/08 02:58:44;;;;;;;4.57;3.38;;;;;;;12.39;100.00;100181.63;4968918;28;20378;-77
2021/08/08 03:01:11;;;;;;;6.40;3.40;;;;;;;12.36;100.00;100184.59;4957888;28;20043;-77
2021/08/08 03:03:38;;;;;;;6.47;3.05;;;;;;;12.38;100.00;100180.00;4952430;28;20050;-81
2021/08/08 03:06:10;;;;;;;5.32;2.92;;;;;;;12.39;100.00;100185.06;4974803;28;20142;-79
2021/08/08 03:08:37;;;;;;;8.48;3.78;;;;;;;12.36;100.00;100192.50;4964113;28;20062;-79
2021/08/08 03:11:03;;;;;;;8.10;3.50;;;;;;;12.35;100.00;100189.03;4968136;28;20116;-78
2021/08/08 03:13:29;;;;;;;6.30;3.40;;;;;;;12.35;100.00;100189.03;4941319;28;20041;-79
2021/08/08 03:15:55;;;;;;;7.97;3.08;;;;;;;12.32;100.00;100196.44;5002666;28;20038;-79
2021/08/08 03:18:21;;;;;;;5.88;3.00;;;;;;;12.30;100.00;100199.25;4961632;28;20034;-79
2021/08/08 03:20:47;;;;;;;9.10;3.25;;;;;;;12.33;100.00;100195.47;4958397;28;20106;-79
2021/08/08 03:23:13;;;;;;;10.38;3.35;;;;;;;12.32;100.00;100206.94;4970686;28;20125;-78
2021/08/08 03:25:38;;;;;;;6.13;3.00;;;;;;;12.36;100.00;100197.75;4976788;28;20050;-77
2021/08/08 03:28:05;;;;;;;5.78;3.30;;;;;;;12.36;100.00;100193.31;4977567;28;20038;-80
2021/08/08 03:30:30;;;;;;;3.85;3.05;;;;;;;12.34;100.00;100189.19;4957319;28;20170;-79
2021/08/08 03:32:56;;;;;;;5.95;3.40;;;;;;;12.33;100.00;100198.91;4954115;28;20116;-81
2021/08/08 03:35:21;;;;;;;6.55;2.75;;;;;;;12.39;100.00;100197.41;4972502;28;20522;-79
2021/08/08 03:37:47;;;;;;;7.20;3.20;;;;;;;12.41;100.00;100192.78;4941753;28;20109;-81
2021/08/08 03:40:13;;;;;;;5.57;3.72;;;;;;;12.46;100.00;100191.28;4956333;28;20775;-80
2021/08/08 03:42:38;;;;;;;7.60;3.67;;;;;;;12.54;100.00;100197.50;4965003;28;20035;-82
2021/08/08 03:45:05;;;;;;;8.70;3.60;;;;;;;12.52;100.00;100207.38;4956807;28;20035;-79
2021/08/08 03:47:34;;;;;;;5.70;3.28;;;;;;;12.45;100.00;100199.34;4957375;28;20035;-78
2021/08/08 03:50:02;;;;;;;9.25;3.63;;;;;;;12.48;100.00;100203.44;4957865;28;20143;-79
2021/08/08 03:52:29;;;;;;;4.75;3.10;;;;;;;12.46;100.00;100214.94;4958634;28;20084;-79
2021/08/08 03:54:54;;;;;;;4.57;3.70;;;;;;;12.54;100.00;100213.28;4958001;28;20066;-78
2021/08/08 03:57:20;;;;;;;6.80;3.67;;;;;;;12.57;100.00;100212.94;4943837;28;20421;-78
2021/08/08 03:59:45;;;;;;;6.10;3.70;;;;;;;12.59;100.00;100205.69;4946179;28;20026;-78
2021/08/08 04:02:11;;;;;;;9.30;4.10;;;;;;;12.77;100.00;100210.69;4972969;28;20039;-80
2021/08/08 04:04:37;;;;;;;10.20;3.90;;;;;;;12.82;100.00;100217.06;4971028;28;20116;-79
2021/08/08 04:07:02;;;;;;;8.85;4.40;;;;;;;12.85;100.00;100208.00;4959690;28;20034;-80
2021/08/08 04:09:28;;;;;;;7.85;3.67;;;;;;;12.92;100.00;100205.47;4969662;28;20576;-81
2021/08/08 04:11:54;;;;;;;8.30;4.30;;;;;;;12.91;100.00;100214.41;4967302;28;20042;-80
2021/08/08 04:14:20;;;;;;;8.48;4.30;;;;;;;12.92;100.00;100214.22;4976566;28;20520;-78
2021/08/08 04:16:45;;;;;;;10.68;4.30;;;;;;;12.92;100.00;100218.66;4959430;28;20088;-79
2021/08/08 04:19:11;;;;;;;8.77;4.05;;;;;;;12.96;100.00;100217.28;4985587;28;20121;-79
2021/08/08 04:21:37;;;;;;;13.38;4.07;;;;;;;13.00;100.00;100210.72;4957302;28;20039;-79
2021/08/08 04:24:02;;;;;;;7.78;3.80;;;;;;;13.03;100.00;100216.44;4971234;28;20035;-78
2021/08/08 04:26:28;;;;;;;7.25;3.90;;;;;;;13.08;100.00;100223.81;4957144;28;20102;-79
2021/08/08 04:28:53;;;;;;;8.63;4.05;;;;;;;13.19;100.00;100226.03;4964460;28;20046;-83
2021/08/08 04:31:19;;;;;;;7.15;3.60;;;;;;;13.22;100.00;100227.47;4981282;28;20049;-78
2021/08/08 04:33:45;;;;;;;12.27;4.13;;;;;;;13.22;100.00;100216.94;4961518;28;20039;-78
2021/08/08 04:36:11;;;;;;;5.82;3.28;;;;;;;13.31;100.00;100229.09;4958932;28;20149;-78
2021/08/08 04:38:37;;;;;;;8.63;3.72;;;;;;;13.36;100.00;100228.59;4958025;28;20031;-79
2021/08/08 04:41:03;;;;;;;6.68;3.00;;;;;;;13.46;100.00;100226.50;4960857;28;20038;-78
2021/08/08 04:43:29;;;;;;;5.45;2.88;;;;;;;13.52;100.00;100222.34;4965480;28;20039;-79
2021/08/08 04:45:54;;;;;;;4.32;3.17;;;;;;;13.52;100.00;100233.69;4976257;28;20083;-80
2021/08/08 04:48:20;;;;;;;3.70;2.88;;;;;;;13.62;100.00;100233.47;4956883;28;20032;-79
2021/08/08 04:50:48;;;;;;;5.22;2.97;;;;;;;13.59;100.00;100233.81;4975971;28;20420;-78
2021/08/08 04:53:17;;;;;;;5.70;2.88;;;;;;;13.64;100.00;100234.09;4945200;28;20026;-76
2021/08/08 04:55:45;;;;;;;8.68;3.15;;;;;;;13.71;100.00;100236.81;4957577;28;20042;-79
2021/08/08 04:58:11;;;;;;;4.72;2.70;;;;;;;13.74;100.00;100233.84;4964789;28;20169;-77
2021/08/08 05:00:36;;;;;;;3.80;2.60;;;;;;;13.82;100.00;100231.94;4942842;28;20077;-79
2021/08/08 05:03:02;;;;;;;7.97;3.00;;;;;;;13.89;100.00;100236.50;4976893;28;20567;-78
2021/08/08 05:05:29;;;;;;;6.78;2.88;;;;;;;13.91;100.00;100230.03;4945152;28;20040;-77
2021/08/08 05:07:54;;;;;;;3.00;2.70;;;;;;;13.99;100.00;100232.59;4959728;28;20031;-77
2021/08/08 05:10:24;;;;;;;8.63;2.67;;;;;;;14.05;100.00;100232.84;4975028;28;20061;-79
2021/08/08 05:12:55;;;;;;;6.75;2.35;;;;;;;14.13;100.00;100238.88;4975640;28;20505;-78
2021/08/08 05:15:22;;;;;;;8.70;2.35;;;;;;;14.11;100.00;100243.50;4959819;28;20038;-78
2021/08/08 05:17:48;;;;;;;5.32;2.40;;;;;;;14.13;100.00;100240.69;4975722;28;20416;-82
2021/08/08 05:20:14;;;;;;;5.78;2.53;;;;;;;14.10;100.00;100239.22;4943977;28;20038;-80
2021/08/08 05:22:40;;;;;;;7.70;2.45;;;;;;;14.30;100.00;100241.34;4961006;28;20039;-77
2021/08/08 05:25:06;;;;;;;2.47;2.00;;;;;;;14.33;100.00;100246.22;4978729;28;20124;-80
2021/08/08 05:27:33;;;;;;;3.97;2.17;;;;;;;14.37;100.00;100248.31;4959540;28;20041;-80
2021/08/08 05:30:03;;;;;;;7.45;2.30;;;;;;;14.53;100.00;100251.75;4957384;28;20038;-81
2021/08/08 05:32:29;;;;;;;3.83;1.95;;;;;;;14.67;100.00;100237.72;4970939;28;20038;-81
2021/08/08 05:34:55;;;;;;;7.03;1.88;;;;;;;14.77;100.00;100250.66;4954889;28;20035;-78
2021/08/08 05:37:22;;;;;;;4.97;2.08;;;;;;;14.94;100.00;100248.63;4942908;28;20031;-80
2021/08/08 05:39:48;;;;;;;4.10;1.80;;;;;;;15.15;100.00;100259.19;4940672;28;20043;-82
2021/08/08 05:42:18;;;;;;;5.15;1.70;;;;;;;15.22;100.00;100256.63;4943495;28;20108;-81
2021/08/08 05:44:43;;;;;;;3.55;1.70;;;;;;;15.18;100.00;100269.38;4944766;28;20047;-78
2021/08/08 05:47:09;;;;;;;3.28;1.90;;;;;;;15.08;100.00;100271.50;4950052;28;20038;-80
2021/08/08 05:49:35;;;;;;;5.47;2.00;;;;;;;14.86;100.00;100270.66;4939399;28;20664;-78
2021/08/08 05:52:03;;;;;;;3.15;2.45;;;;;;;14.71;100.00;100273.34;4954146;28;20077;-80
2021/08/08 05:54:30;;;;;;;5.57;2.58;;;;;;;14.54;100.00;100283.25;4960253;28;20042;-82
2021/08/08 05:56:56;;;;;;;4.97;2.88;;;;;;;14.41;100.00;100273.34;4956869;28;20139;-81
2021/08/08 05:59:22;;;;;;;4.47;2.75;;;;;;;14.29;100.00;100280.06;4944880;28;20063;-80
2021/08/08 06:01:48;;;;;;;5.25;3.08;;;;;;;14.27;100.00;100279.44;4961561;28;20045;-80
2021/08/08 06:04:14;;;;;;;5.60;3.35;;;;;;;14.17;100.00;100282.34;4954754;28;20038;-78
2021/08/08 06:06:39;;;;;;;6.22;4.05;;;;;;;14.15;100.00;100280.91;4943366;28;20043;-80
2021/08/08 06:09:05;;;;;;;4.72;3.58;;;;;;;14.13;100.00;100280.25;4975028;28;20521;-78
2021/08/08 06:11:31;;;;;;;5.32;3.80;;;;;;;14.07;100.00;100278.31;4940236;28;20038;-81
2021/08/08 06:13:57;;;;;;;5.95;4.07;;;;;;;14.13;100.00;100282.91;4974084;28;20058;-82
2021/08/08 06:16:23;;;;;;;5.93;4.15;;;;;;;14.14;100.00;100289.78;5001969;28;20137;-80
2021/08/08 06:18:48;;;;;;;6.22;3.97;;;;;;;14.11;100.00;100293.63;4955752;28;20041;-80
2021/08/08 06:21:14;;;;;;;6.13;3.85;;;;;;;14.10;100.00;100296.44;4960162;28;20034;-80
2021/08/08 06:23:47;;;;;;;;;;;;;;;14.11;100.00;100298.06;4941650;28;20485;-77
2021/08/08 06:26:12;;;;;;;6.93;4.20;;;;;;;14.03;100.00;100296.31;4976002;28;20093;-81
2021/08/08 06:28:38;;;;;;;6.20;3.92;;;;;;;14.05;100.00;100293.50;4965493;28;20043;-80
2021/08/08 06:31:03;;;;;;;4.97;3.35;;;;;;;14.11;100.00;100306.81;4958500;28;20109;-79
2021/08/08 06:33:30;;;;;;;4.80;3.30;;;;;;;14.13;100.00;100304.00;4941128;28;20038;-78
2021/08/08 06:35:56;;;;;;;4.63;3.38;;;;;;;14.22;100.00;100310.78;4973027;28;20085;-78
2021/08/08 06:38:21;;;;;;;6.40;4.03;;;;;;;14.24;100.00;100313.25;4952472;28;20031;-81
2021/08/08 06:40:47;;;;;;;6.07;4.30;;;;;;;14.16;100.00;100291.25;4981324;28;20038;-81
2021/08/08 06:43:12;;;;;;;8.40;4.00;;;;;;;14.36;100.00;100314.47;4943004;28;20035;-83
2021/08/08 06:45:40;;;;;;;6.32;3.95;;;;;;;14.35;100.00;100318.94;4942938;28;20034;-83
2021/08/08 06:48:06;;;;;;;4.50;3.47;;;;;;;14.38;100.00;100317.72;4964561;28;20257;-78
2021/08/08 06:50:32;;;;;;;6.05;3.33;;;;;;;14.37;100.00;100322.19;5001667;28;20022;-77
2021/08/08 06:52:58;;;;;;;6.55;3.40;;;;;;;14.41;100.00;100326.09;4949525;28;20063;-79
2021/08/08 06:55:25;;;;;;;5.68;3.35;;;;;;;14.41;100.00;100320.03;4975193;28;20025;-79
2021/08/08 06:57:50;;;;;;;4.47;3.60;;;;;;;14.39;100.00;100322.84;4965167;28;20110;-79
2021/08/08 07:00:17;;;;;;;4.95;3.70;;;;;;;14.39;100.00;100317.56;4958868;28;20038;-78
2021/08/08 07:02:43;;;;;;;3.75;3.20;;;;;;;14.44;100.00;100319.63;4974570;28;20469;-79
2021/08/08 07:05:09;;;;;;;4.90;3.15;;;;;;;14.49;100.00;100325.19;4942903;28;20030;-82
2021/08/08 07:07:34;;;;;;;4.13;3.20;;;;;;;14.46;100.00;100330.81;4959748;28;20085;-80
2021/08/08 07:10:00;;;;;;;5.82;4.00;;;;;;;14.55;100.00;100331.56;4964289;28;20041;-76
2021/08/08 07:12:27;;;;;;;4.05;3.63;;;;;;;14.60;100.00;100323.97;4961817;28;20026;-79
2021/08/08 07:14:53;;;;;;;5.07;4.30;;;;;;;14.67;100.00;100332.75;4963788;28;20027;-78
2021/08/08 07:17:19;;;;;;;8.80;3.97;;;;;;;14.82;100.00;100340.66;4943723;28;20411;-78
2021/08/08 07:19:45;;;;;;;8.32;4.18;;;;;;;14.84;100.00;100338.66;4960394;28;20449;-82
2021/08/08 07:22:11;;;;;;;4.22;3.88;;;;;;;14.96;100.00;100333.75;4974124;28;20069;-80
2021/08/08 07:24:38;;;;;;;5.18;4.20;;;;;;;14.97;100.00;100336.22;4963742;28;20810;-79
2021/08/08 07:27:04;;;;;;;5.72;4.30;;;;;;;15.03;100.00;100339.94;4974154;28;20039;-78
2021/08/08 07:29:30;;;;;;;5.07;3.83;;;;;;;15.02;100.00;100340.91;4960074;28;20097;-78
2021/08/08 07:31:58;;;;;;;8.50;4.88;;;;;;;14.98;100.00;100340.47;4942092;28;20042;-79
2021/08/08 07:34:24;;;;;;;7.32;4.70;;;;;;;14.94;100.00;100341.03;4965250;28;20658;-77
2021/08/08 07:36:50;;;;;;;6.78;4.55;;;;;;;14.91;100.00;100342.22;4956197;28;20366;-79
2021/08/08 07:39:16;;;;;;;6.00;4.63;;;;;;;14.91;100.00;100341.41;4973210;28;20062;-79
2021/08/08 07:41:42;;;;;;;7.43;4.70;;;;;;;15.02;100.00;100354.13;4948023;28;20042;-78
2021/08/08 07:44:09;;;;;;;6.40;4.45;;;;;;;14.97;100.00;100348.56;4984374;28;20420;-78
2021/08/08 07:46:34;;;;;;;6.18;4.47;;;;;;;15.01;100.00;100357.75;4944429;28;20034;-79
2021/08/08 07:49:00;;;;;;;5.10;4.60;;;;;;;14.92;100.00;100349.13;4978361;28;20035;-78
2021/08/08 07:51:26;;;;;;;5.28;4.78;;;;;;;14.96;100.00;100358.31;4941187;28;20046;-79
2021/08/08 07:53:52;;;;;;;6.38;4.45;;;;;;;14.94;100.00;100367.44;4956060;28;20045;-80
2021/08/08 07:56:18;;;;;;;7.30;4.82;;;;;;;14.82;100.00;100368.91;4949719;28;20034;-78
2021/08/08 07:58:44;;;;;;;5.38;4.68;;;;;;;14.83;100.00;100368.72;4975776;28;20042;-76
2021/08/08 08:01:10;;;;;;;4.75;4.35;;;;;;;14.72;100.00;100369.19;4959997;28;20038;-79
2021/08/08 08:03:35;;;;;;;5.95;5.20;;;;;;;14.80;100.00;100374.34;4938386;28;20134;-79
2021/08/08 08:06:01;;;;;;;6.22;4.78;;;;;;;14.89;100.00;100380.38;4971795;28;20108;-78
2021/08/08 08:08:26;;;;;;;5.95;4.88;;;;;;;14.98;100.00;100393.28;4971445;28;20575;-78
2021/08/08 08:10:58;;;;;;;7.55;5.97;;;;;;;15.11;100.00;100394.47;4946367;28;20134;-77
2021/08/08 08:13:24;;;;;;;6.30;5.65;;;;;;;15.24;100.00;100407.00;4972173;28;20125;-80
2021/08/08 08:15:49;;;;;;;7.38;4.95;;;;;;;15.23;100.00;100395.63;4939708;28;20042;-79
2021/08/08 08:18:15;;;;;;;7.00;5.13;;;;;;;15.37;100.00;100401.88;4958970;28;20027;-79
2021/08/08 08:20:42;;;;;;;8.07;5.47;;;;;;;15.36;100.00;100416.09;4954962;28;20045;-79
2021/08/08 08:23:08;;;;;;;8.82;5.65;;;;;;;15.28;100.00;100403.81;4955359;28;20050;-77
2021/08/08 08:25:33;;;;;;;8.18;5.40;;;;;;;15.41;100.00;100411.09;4939563;28;20043;-80
2021/08/08 08:27:59;;;;;;;8.45;5.88;;;;;;;15.47;100.00;100418.25;4943583;28;20080;-79
2021/08/08 08:30:25;;;;;;;9.85;6.03;;;;;;;15.46;100.00;100415.78;4939783;28;20464;-76
2021/08/08 08:32:52;;;;;;;9.07;6.57;;;;;;;15.62;100.00;100422.69;4960542;28;20469;-78
2021/08/08 08:35:17;;;;;;;9.15;5.90;;;;;;;15.70;100.00;100426.00;4954293;28;20042;-79
2021/08/08 08:37:43;;;;;;;9.27;5.03;;;;;;;15.79;100.00;100437.34;4952228;28;20512;-79
2021/08/08 08:40:09;;;;;;;9.25;5.68;;;;;;;15.83;100.00;100435.13;4994594;28;20038;-79
2021/08/08 08:42:45;;;;;;;8.70;5.80;;;;;;;15.98;100.00;100438.53;4956838;28;20460;-77
2021/08/08 08:45:11;;;;;;;10.98;5.95;;;;;;;16.05;100.00;100444.72;4954489;28;20121;-76
2021/08/08 08:47:40;;;;;;;5.75;5.05;;;;;;;16.07;100.00;100452.47;4962995;28;20034;-79
2021/08/08 08:50:08;;;;;;;8.57;5.50;;;;;;;16.12;100.00;100452.69;4940545;28;20054;-77
2021/08/08 08:52:35;;;;;;;11.40;5.90;;;;;;;16.20;100.00;100463.16;4948999;28;20415;-78
2021/08/08 08:55:02;;;;;;;9.82;4.90;;;;;;;16.12;100.00;100455.34;4939715;28;20066;-78
2021/08/08 08:57:28;;;;;;;9.80;5.38;;;;;;;16.08;100.00;100465.47;4954831;28;20035;-78
2021/08/08 08:59:58;;;;;;;8.98;5.70;;;;;;;16.23;100.00;100468.06;4966050;28;20038;-77
2021/08/08 09:02:24;;;;;;;8.23;4.45;;;;;;;16.21;100.00;100478.00;4960952;28;20038;-77
2021/08/08 09:04:50;;;;;;;10.23;4.53;;;;;;;16.48;100.00;100486.16;4944146;28;20030;-79
2021/08/08 09:07:16;;;;;;;10.20;4.80;;;;;;;16.45;100.00;100475.97;4954501;28;20414;-77
2021/08/08 09:09:41;;;;;;;8.32;5.10;;;;;;;16.35;100.00;100484.25;4942309;28;20043;-80
2021/08/08 09:12:07;;;;;;;11.93;5.10;;;;;;;16.33;100.00;100502.97;4958763;28;20043;-78
2021/08/08 09:14:35;;;;;;;9.25;4.40;;;;;;;16.44;100.00;100491.03;4971585;28;20038;-78
2021/08/08 09:17:02;;;;;;;9.75;4.78;;;;;;;16.38;100.00;100504.22;4954441;28;20449;-80
2021/08/08 09:19:34;;;;;;;7.67;5.50;;;;;;;16.34;100.00;100501.94;4983267;28;20042;-82
2021/08/08 09:22:05;;;;;;;12.65;5.25;;;;;;;16.41;100.00;100501.22;4955818;28;20055;-77
2021/08/08 09:24:35;;;;;;;11.80;5.50;;;;;;;16.57;100.00;100503.56;4957076;28;20043;-81
2021/08/08 09:27:09;;;;;;;8.75;4.65;;;;;;;16.47;100.00;100509.19;4967534;28;20047;-79
2021/08/08 09:29:46;;;;;;;11.10;5.03;;;;;;;16.38;100.00;100520.91;4945530;28;20102;-79
2021/08/08 09:32:14;;;;;;;9.02;5.53;;;;;;;16.26;100.00;100522.44;5001542;28;20019;-78
2021/08/08 09:34:52;;;;;;;10.90;5.53;;;;;;;16.11;100.00;100522.50;4978723;28;20043;-80
2021/08/08 09:37:23;;;;;;;14.18;6.30;;;;;;;15.90;100.00;100520.66;4993960;28;20760;-79
2021/08/08 09:39:50;;;;;;;13.23;6.32;;;;;;;15.84;100.00;100532.81;4939139;28;20065;-80
2021/08/08 09:42:19;;;;;;;10.13;6.82;;;;;;;15.85;100.00;100534.44;4978647;28;20030;-79
2021/08/08 09:45:03;;;;;;;12.63;7.22;;;;;;;15.88;100.00;100535.88;4988482;28;20539;-80
2021/08/08 09:47:41;;;;;;;12.27;6.78;;;;;;;16.01;100.00;100551.06;4971794;28;20612;-81
2021/08/08 09:50:15;;;;;;;15.15;7.45;;;;;;;15.98;100.00;100549.63;4958978;28;20043;-78
2021/08/08 09:52:48;;;;;;;15.35;6.60;;;;;;;16.00;100.00;100549.44;4967435;28;20066;-79
2021/08/08 09:55:34;;;;;;;15.43;6.22;;;;;;;16.10;100.00;100557.88;4953077;28;20035;-79
2021/08/08 09:58:01;;;;;;;19.38;6.82;;;;;;;16.27;100.00;100559.28;4959895;28;20591;-78
2021/08/08 10:00:33;;;;;;;16.90;6.55;;;;;;;16.40;100.00;100553.31;4979269;28;20053;-76
2021/08/08 10:02:59;;;;;;;14.27;6.47;;;;;;;16.54;100.00;100563.00;4967907;28;20553;-79
2021/08/08 10:05:26;;;;;;;17.60;5.78;;;;;;;16.53;100.00;100573.78;4959198;28;20564;-78
2021/08/08 10:07:53;;;;;;;12.65;6.05;;;;;;;16.52;100.00;100567.69;4983634;28;20030;-77
2021/08/08 10:10:19;;;;;;;13.55;6.22;;;;;;;16.48;100.00;100576.19;4937701;28;20039;-78
2021/08/08 10:13:05;;;;;;;14.88;6.00;;;;;;;16.37;100.00;100584.63;4953761;28;20046;-79
2021/08/08 10:15:33;;;;;;;14.90;6.13;;;;;;;16.26;100.00;100578.03;4955776;28;20066;-79
2021/08/08 10:18:01;;;;;;;14.57;5.93;;;;;;;16.16;100.00;100583.59;4941009;28;20026;-80
2021/08/08 10:20:31;;;;;;;12.50;5.40;;;;;;;16.05;100.00;100582.28;4974752;28;20085;-81
2021/08/08 10:22:59;;;;;;;18.75;6.35;;;;;;;15.96;100.00;100581.56;4977790;28;20050;-77
2021/08/08 10:25:25;;;;;;;16.90;6.90;;;;;;;15.98;100.00;100583.22;4956985;28;20081;-80
2021/08/08 10:27:51;;;;;;;17.80;6.18;;;;;;;16.03;100.00;100580.81;4939723;28;20075;-79
2021/08/08 10:30:16;;;;;;;16.88;5.75;;;;;;;16.05;100.00;100573.50;4958900;28;20034;-80
2021/08/08 10:32:42;;;;;;;12.50;5.43;;;;;;;16.35;100.00;100579.53;4945933;28;20177;-79
2021/08/08 10:35:12;;;;;;;13.50;5.55;;;;;;;16.68;100.00;100579.03;4955722;28;20039;-79
2021/08/08 10:37:38;;;;;;;13.30;5.07;;;;;;;17.16;98.20;100583.69;4939223;28;20481;-78
2021/08/08 10:40:04;;;;;;;11.80;4.60;;;;;;;17.42;95.62;100573.28;4958397;28;20058;-82
2021/08/08 10:42:43;;;;;;;14.35;5.18;;;;;;;17.45;94.27;100583.47;4944191;28;20041;-78
2021/08/08 10:45:21;;;;;;;17.02;4.85;;;;;;;17.82;94.69;100588.53;4978232;28;20031;-83
2021/08/08 10:47:56;;;;;;;12.23;4.38;;;;;;;18.00;90.69;100593.34;4983007;28;20035;-85
2021/08/08 10:50:33;;;;;;;12.90;4.72;;;;;;;18.13;92.33;100587.25;4972073;28;20038;-83
2021/08/08 10:52:58;;;;;;;11.57;4.30;;;;;;;18.44;89.37;100592.84;4943937;28;20042;-84
2021/08/08 10:55:30;;;;;;;13.43;4.00;;;;;;;18.57;86.55;100597.38;4993445;28;20031;-82
2021/08/08 10:58:01;;;;;;;15.23;4.07;;;;;;;18.80;87.90;100604.13;4941914;28;20162;-83
2021/08/08 11:00:33;;;;;;;15.80;4.45;;;;;;;19.16;88.69;100609.03;4975977;28;20070;-83
2021/08/08 11:03:15;;;;;;;11.33;3.63;;;;;;;19.53;84.37;100601.38;4975611;28;20022;-85
2021/08/08 11:05:42;;;;;;;15.15;3.80;;;;;;;19.95;81.95;100599.22;4976307;28;20117;-84
2021/08/08 11:08:09;;;;;;;14.05;3.53;;;;;;;20.18;80.27;100601.34;4947952;28;20034;-82
2021/08/08 11:10:41;;;;;;;11.95;3.20;;;;;;;20.27;77.28;100607.25;4959416;28;20062;-83
2021/08/08 11:13:23;;;;;;;11.45;3.78;;;;;;;20.06;81.90;100615.53;4975706;28;20045;-82
2021/08/08 11:15:51;;;;;;;11.43;3.63;;;;;;;19.86;80.27;100607.66;4983603;28;20531;-81
2021/08/08 11:18:17;;;;;;;10.35;3.22;;;;;;;19.80;81.63;100618.13;4958758;28;20113;-84